createdAt,value
2022-12-14T00:01:40.185Z,4.20
2022-12-14T00:04:06.914Z,4.30
2022-12-14T00:06:34.099Z,4.20
2022-12-14T00:09:03.382Z,4.20
2022-12-14T00:11:30.108Z,4.10
2022-12-14T00:13:59.069Z,4.00
2022-12-14T00:16:28.598Z,4.00
2022-12-14T00:18:57.398Z,4.00
2022-12-14T00:21:25.160Z,4.10
2022-12-14T00:23:52.907Z,4.10
2022-12-14T00:26:22.522Z,4.20
2022-12-14T00:28:52.096Z,4.10
2022-12-14T00:31:19.605Z,4.20
2022-12-14T00:33:46.807Z,4.20
2022-12-14T00:36:16.457Z,4.30
2022-12-14T00:38:43.347Z,4.20
2022-12-14T00:41:11.580Z,4.20
2022-12-14T00:43:38.510Z,4.10
2022-12-14T00:46:05.978Z,4.20
2022-12-14T00:48:33.470Z,4.10
2022-12-14T00:51:00.787Z,4.20
2022-12-14T00:53:27.474Z,4.20
2022-12-14T00:55:54.385Z,4.20
2022-12-14T00:58:22.963Z,4.20
2022-12-14T01:01:02.431Z,4.20
2022-12-14T01:03:29.762Z,4.10
2022-12-14T01:05:56.883Z,4.10
2022-12-14T01:08:23.868Z,4.10
2022-12-14T01:10:51.529Z,4.20
2022-12-14T01:13:18.287Z,4.10
2022-12-14T01:15:45.020Z,4.10
2022-12-14T01:18:11.774Z,4.10
2022-12-14T01:20:38.390Z,4.00
2022-12-14T01:23:05.025Z,4.10
2022-12-14T01:25:31.674Z,4.10
2022-12-14T01:27:58.287Z,4.00
2022-12-14T01:30:25.040Z,4.00
2022-12-14T01:32:51.703Z,3.90
2022-12-14T01:35:18.364Z,3.90
2022-12-14T01:37:44.958Z,3.90
2022-12-14T01:40:15.608Z,4.00
2022-12-14T01:42:42.189Z,4.00
2022-12-14T01:45:21.518Z,4.00
2022-12-14T01:47:58.042Z,3.90
2022-12-14T01:50:37.606Z,3.90
2022-12-14T01:53:17.400Z,3.90
2022-12-14T01:55:52.130Z,4.00
2022-12-14T01:58:28.808Z,4.00
2022-12-14T02:00:59.315Z,3.90
2022-12-14T02:03:33.336Z,3.90
2022-12-14T02:06:05.030Z,3.90
2022-12-14T02:08:32.565Z,4.00
2022-12-14T02:10:59.846Z,3.90
2022-12-14T02:13:32.771Z,3.90
2022-12-14T02:15:59.513Z,3.90
2022-12-14T02:18:28.962Z,3.90
2022-12-14T02:21:22.047Z,3.90
2022-12-14T02:24:18.092Z,3.80
2022-12-14T02:27:10.539Z,3.90
2022-12-14T02:30:07.158Z,3.80
2022-12-14T02:32:57.915Z,3.80
2022-12-14T02:35:44.573Z,3.80
2022-12-14T02:38:29.091Z,3.80
2022-12-14T02:41:01.597Z,3.80
2022-12-14T02:43:37.452Z,3.70
2022-12-14T02:46:32.172Z,3.70
2022-12-14T02:49:49.190Z,3.70
2022-12-14T02:52:33.092Z,3.80
2022-12-14T02:55:28.264Z,3.80
2022-12-14T02:58:05.590Z,3.70
2022-12-14T03:00:35.232Z,3.70
2022-12-14T03:03:03.330Z,3.70
2022-12-14T03:05:30.480Z,3.60
2022-12-14T03:08:11.322Z,3.60
2022-12-14T03:10:58.262Z,3.60
2022-12-14T03:13:40.476Z,3.60
2022-12-14T03:16:26.939Z,3.60
2022-12-14T03:19:09.315Z,3.60
2022-12-14T03:21:39.670Z,3.60
2022-12-14T03:24:12.420Z,3.60
2022-12-14T03:27:02.116Z,3.60
2022-12-14T03:29:31.944Z,3.60
2022-12-14T03:32:00.989Z,3.60
2022-12-14T03:34:44.850Z,3.60
2022-12-14T03:37:11.465Z,3.60
2022-12-14T03:39:40.846Z,3.60
2022-12-14T03:42:23.361Z,3.60
2022-12-14T03:45:19.037Z,3.60
2022-12-14T03:47:57.215Z,3.60
2022-12-14T03:50:36.168Z,3.60
2022-12-14T03:53:16.926Z,3.60
2022-12-14T03:56:09.202Z,3.60
2022-12-14T03:58:57.365Z,3.60
2022-12-14T04:01:39.006Z,3.60
2022-12-14T04:04:30.321Z,3.60
2022-12-14T04:07:02.007Z,3.60
2022-12-14T04:09:56.343Z,3.60
2022-12-14T04:12:51.913Z,3.50
2022-12-14T04:15:53.500Z,3.60
2022-12-14T04:18:48.674Z,3.60
2022-12-14T04:21:36.987Z,3.60
2022-12-14T04:24:46.262Z,3.60
2022-12-14T04:27:18.951Z,3.60
2022-12-14T04:29:57.710Z,3.60
2022-12-14T04:32:46.139Z,3.60
2022-12-14T04:35:39.203Z,3.60
2022-12-14T04:38:14.109Z,3.60
2022-12-14T04:41:07.423Z,3.60
2022-12-14T04:43:38.792Z,3.60
2022-12-14T04:46:09.803Z,3.60
2022-12-14T04:48:47.139Z,3.50
2022-12-14T04:51:16.256Z,3.60
2022-12-14T04:53:46.034Z,3.60
2022-12-14T04:56:27.888Z,3.50
2022-12-14T04:58:54.987Z,3.50
2022-12-14T05:01:43.603Z,3.50
2022-12-14T05:04:41.788Z,3.50
2022-12-14T05:07:37.980Z,3.50
2022-12-14T05:10:12.008Z,3.50
2022-12-14T05:12:58.103Z,3.50
2022-12-14T05:15:31.640Z,3.40
2022-12-14T05:18:05.264Z,3.40
2022-12-14T05:20:32.119Z,3.40
2022-12-14T05:22:59.756Z,3.40
2022-12-14T05:25:26.465Z,3.40
2022-12-14T05:27:53.152Z,3.40
2022-12-14T05:30:19.850Z,3.50
2022-12-14T05:32:46.576Z,3.40
2022-12-14T05:35:15.286Z,3.40
2022-12-14T05:37:42.679Z,3.50
2022-12-14T05:40:10.494Z,3.50
2022-12-14T05:42:42.806Z,3.50
2022-12-14T05:45:12.583Z,3.40
2022-12-14T05:47:39.778Z,3.40
2022-12-14T05:50:07.498Z,3.50
2022-12-14T05:52:34.208Z,3.40
2022-12-14T05:55:04.480Z,3.50
2022-12-14T05:57:31.405Z,3.40
2022-12-14T05:59:57.993Z,3.40
2022-12-14T06:02:24.775Z,3.40
2022-12-14T06:04:51.500Z,3.40
2022-12-14T06:07:20.674Z,3.40
2022-12-14T06:12:44.064Z,3.40
2022-12-14T06:15:10.880Z,3.40
2022-12-14T06:17:42.187Z,3.40
2022-12-14T06:20:09.416Z,3.40
2022-12-14T06:22:36.082Z,3.40
2022-12-14T06:25:02.914Z,3.40
2022-12-14T06:27:29.583Z,3.40
2022-12-14T06:29:56.173Z,3.40
2022-12-14T06:32:22.830Z,3.40
2022-12-14T06:34:49.428Z,3.40
2022-12-14T06:37:16.154Z,3.40
2022-12-14T06:39:42.809Z,3.40
2022-12-14T06:42:10.658Z,3.30
2022-12-14T06:44:37.420Z,3.30
2022-12-14T06:47:04.113Z,3.40
2022-12-14T06:49:35.917Z,3.40
2022-12-14T06:52:02.691Z,3.40
2022-12-14T06:54:30.307Z,3.40
2022-12-14T06:56:56.895Z,3.40
2022-12-14T06:59:23.513Z,3.40
2022-12-14T07:01:50.507Z,3.40
2022-12-14T07:04:18.659Z,3.40
2022-12-14T07:06:45.316Z,3.40
2022-12-14T07:09:13.812Z,3.40
2022-12-14T07:11:40.777Z,3.40
2022-12-14T07:14:07.558Z,3.40
2022-12-14T07:16:36.813Z,3.40
2022-12-14T07:19:04.753Z,3.40
2022-12-14T07:21:32.065Z,3.30
2022-12-14T07:24:00.559Z,3.30
2022-12-14T07:26:28.003Z,3.30
2022-12-14T07:28:55.281Z,3.30
2022-12-14T07:31:25.485Z,3.30
2022-12-14T07:33:54.578Z,3.30
2022-12-14T07:36:22.102Z,3.30
2022-12-14T07:38:50.420Z,3.30
2022-12-14T07:41:23.497Z,3.30
2022-12-14T07:43:51.889Z,3.30
2022-12-14T07:46:23.156Z,3.30
2022-12-14T07:48:57.162Z,3.30
2022-12-14T07:51:26.770Z,3.30
2022-12-14T07:53:53.480Z,3.30
2022-12-14T07:56:25.669Z,3.40
2022-12-14T07:58:54.063Z,3.30
2022-12-14T08:01:27.172Z,3.40
2022-12-14T08:03:59.854Z,3.40
2022-12-14T08:06:29.141Z,3.40
2022-12-14T08:08:56.402Z,3.40
2022-12-14T08:11:23.741Z,3.30
2022-12-14T08:13:58.342Z,3.30
2022-12-14T08:16:25.969Z,3.30
2022-12-14T08:18:54.435Z,3.30
2022-12-14T08:21:22.360Z,3.30
2022-12-14T08:23:50.092Z,3.30
2022-12-14T08:26:17.882Z,3.30
2022-12-14T08:28:44.915Z,3.40
2022-12-14T08:31:14.028Z,3.30
2022-12-14T08:33:42.227Z,3.40
2022-12-14T08:36:14.959Z,3.40
2022-12-14T08:38:42.093Z,3.40
2022-12-14T08:41:11.261Z,3.30
2022-12-14T08:43:38.703Z,3.40
2022-12-14T08:46:05.714Z,3.40
2022-12-14T08:48:32.352Z,3.60
2022-12-14T08:51:03.836Z,3.50
2022-12-14T08:53:31.138Z,3.50
2022-12-14T08:55:58.637Z,3.50
2022-12-14T08:58:26.099Z,3.40
2022-12-14T09:01:14.027Z,3.40
2022-12-14T09:03:42.023Z,3.40
2022-12-14T09:06:11.399Z,3.40
2022-12-14T09:08:38.448Z,3.40
2022-12-14T09:11:06.461Z,3.40
2022-12-14T09:13:33.847Z,3.40
2022-12-14T09:16:06.832Z,3.40
2022-12-14T09:18:36.873Z,3.40
2022-12-14T09:21:04.029Z,3.40
2022-12-14T09:23:32.624Z,3.50
2022-12-14T09:26:05.539Z,3.40
2022-12-14T09:28:34.535Z,3.40
2022-12-14T09:31:07.225Z,3.50
2022-12-14T09:33:34.505Z,3.50
2022-12-14T09:36:13.428Z,3.40
2022-12-14T09:38:43.134Z,3.40
2022-12-14T09:41:35.969Z,3.50
2022-12-14T09:44:20.522Z,3.50
2022-12-14T09:46:52.376Z,3.50
2022-12-14T09:49:29.751Z,3.50
2022-12-14T09:52:01.017Z,3.50
2022-12-14T09:54:34.692Z,3.50
2022-12-14T09:57:08.756Z,3.60
2022-12-14T09:59:35.775Z,3.60
2022-12-14T10:02:36.456Z,3.50
2022-12-14T10:05:33.996Z,3.50
2022-12-14T10:08:11.504Z,3.50
2022-12-14T10:10:53.250Z,3.60
2022-12-14T10:13:43.985Z,3.60
2022-12-14T10:16:28.385Z,3.70
2022-12-14T10:19:10.193Z,3.70
2022-12-14T10:21:51.008Z,3.70
2022-12-14T10:24:22.244Z,3.90
2022-12-14T10:26:52.809Z,4.00
2022-12-14T10:29:32.686Z,4.00
2022-12-14T10:32:22.427Z,3.90
2022-12-14T10:34:50.328Z,3.80
2022-12-14T10:37:39.384Z,3.80
2022-12-14T10:40:15.551Z,3.90
2022-12-14T10:42:44.292Z,3.90
2022-12-14T10:48:50.741Z,3.90
2022-12-14T10:51:33.619Z,4.00
2022-12-14T10:54:02.577Z,4.00
2022-12-14T10:56:33.298Z,4.00
2022-12-14T10:59:21.496Z,4.00
2022-12-14T11:01:52.769Z,4.00
2022-12-14T11:04:29.758Z,4.10
2022-12-14T11:06:59.346Z,4.10
2022-12-14T11:09:26.340Z,4.10
2022-12-14T11:12:21.760Z,4.10
2022-12-14T11:15:03.474Z,4.10
2022-12-14T11:17:39.044Z,4.10
2022-12-14T11:20:08.857Z,4.20
2022-12-14T11:22:53.364Z,4.30
2022-12-14T11:25:39.521Z,4.40
2022-12-14T11:28:18.737Z,4.70
2022-12-14T11:31:03.591Z,4.90
2022-12-14T11:33:49.776Z,5.10
2022-12-14T11:36:36.867Z,5.30
2022-12-14T11:39:07.048Z,5.40
2022-12-14T11:41:37.227Z,5.50
2022-12-14T11:44:26.003Z,5.70
2022-12-14T11:47:05.060Z,5.80
2022-12-14T11:49:40.574Z,5.80
2022-12-14T11:52:39.001Z,6.00
2022-12-14T11:55:26.219Z,6.10
2022-12-14T11:57:59.405Z,6.10
2022-12-14T12:00:28.904Z,6.20
2022-12-14T12:03:02.875Z,6.30
2022-12-14T12:05:33.354Z,6.20
2022-12-14T12:08:02.272Z,6.20
2022-12-14T12:10:49.881Z,6.30
2022-12-14T12:13:28.206Z,6.50
2022-12-14T12:16:16.612Z,6.60
2022-12-14T12:19:12.477Z,6.60
2022-12-14T12:21:44.688Z,6.70
2022-12-14T12:24:41.606Z,6.70
2022-12-14T12:27:18.904Z,6.70
2022-12-14T12:29:52.623Z,6.80
2022-12-14T12:32:41.266Z,6.90
2022-12-14T12:35:47.082Z,6.90
2022-12-14T12:38:37.350Z,7.00
2022-12-14T12:41:17.662Z,7.10
2022-12-14T12:43:54.180Z,7.10
2022-12-14T12:46:27.363Z,7.00
2022-12-14T12:49:04.787Z,7.10
2022-12-14T12:51:49.122Z,7.10
2022-12-14T12:54:26.676Z,7.10
2022-12-14T12:56:57.041Z,6.90
2022-12-14T12:59:27.109Z,6.90
2022-12-14T13:01:59.549Z,6.80
2022-12-14T13:04:34.768Z,6.80
2022-12-14T13:07:18.891Z,6.90
2022-12-14T13:09:59.308Z,6.90
2022-12-14T13:12:36.477Z,6.90
2022-12-14T13:15:13.676Z,7.00
2022-12-14T13:17:45.860Z,7.00
2022-12-14T13:20:25.945Z,7.00
2022-12-14T13:22:53.149Z,7.10
2022-12-14T13:25:34.209Z,7.10
2022-12-14T13:28:33.472Z,7.10
2022-12-14T13:31:27.326Z,7.10
2022-12-14T13:34:14.297Z,7.10
2022-12-14T13:36:50.951Z,7.00
2022-12-14T13:39:36.485Z,7.00
2022-12-14T13:42:15.354Z,6.90
2022-12-14T13:45:01.970Z,6.90
2022-12-14T13:47:40.893Z,6.70
2022-12-14T13:50:35.731Z,6.60
2022-12-14T13:53:25.349Z,6.50
2022-12-14T13:55:57.602Z,6.40
2022-12-14T13:58:46.812Z,6.50
2022-12-14T14:01:33.249Z,6.30
2022-12-14T14:04:15.090Z,6.30
2022-12-14T14:06:43.939Z,6.20
2022-12-14T14:09:25.999Z,6.20
2022-12-14T14:12:33.502Z,6.20
2022-12-14T14:15:35.889Z,6.30
2022-12-14T14:18:16.093Z,6.20
2022-12-14T14:20:47.694Z,6.20
2022-12-14T14:23:14.314Z,6.10
2022-12-14T14:26:33.338Z,6.00
2022-12-14T14:29:23.513Z,6.10
2022-12-14T14:31:56.571Z,6.00
2022-12-14T14:34:32.913Z,6.00
2022-12-14T14:36:59.923Z,5.90
2022-12-14T14:40:04.630Z,5.90
2022-12-14T14:42:31.831Z,5.90
2022-12-14T14:45:01.432Z,5.90
2022-12-14T14:47:37.074Z,5.90
2022-12-14T14:50:16.088Z,5.90
2022-12-14T14:52:42.756Z,5.90
2022-12-14T14:58:27.476Z,5.90
2022-12-14T15:01:08.044Z,5.80
2022-12-14T15:03:37.997Z,5.80
2022-12-14T15:06:10.463Z,5.80
2022-12-14T15:08:44.996Z,5.80
2022-12-14T15:11:21.640Z,5.70
2022-12-14T15:14:15.393Z,5.70
2022-12-14T15:16:45.600Z,5.70
2022-12-14T15:19:36.253Z,5.70
2022-12-14T15:22:08.492Z,5.70
2022-12-14T15:24:41.172Z,5.70
2022-12-14T15:27:24.027Z,5.70
2022-12-14T15:29:51.783Z,5.70
2022-12-14T15:32:22.265Z,5.70
2022-12-14T15:34:58.481Z,5.70
2022-12-14T15:37:37.091Z,5.70
2022-12-14T15:40:12.988Z,5.70
2022-12-14T15:42:48.089Z,5.60
2022-12-14T15:45:19.440Z,5.60
2022-12-14T15:47:49.129Z,5.60
2022-12-14T15:50:32.569Z,5.60
2022-12-14T15:53:11.071Z,5.60
2022-12-14T15:55:41.639Z,5.50
2022-12-14T15:58:18.896Z,5.50
2022-12-14T16:00:49.395Z,5.50
2022-12-14T16:03:25.266Z,5.50
2022-12-14T16:05:53.125Z,5.50
2022-12-14T16:08:21.260Z,5.50
2022-12-14T16:10:51.205Z,5.50
2022-12-14T16:13:30.011Z,5.50
2022-12-14T16:15:58.502Z,5.40
2022-12-14T16:18:26.466Z,5.40
2022-12-14T16:21:01.945Z,5.40
2022-12-14T16:23:34.851Z,5.40
2022-12-14T16:26:22.144Z,5.50
2022-12-14T16:28:49.712Z,5.40
2022-12-14T16:31:21.841Z,5.40
2022-12-14T16:34:13.694Z,5.40
2022-12-14T16:36:40.604Z,5.40
2022-12-14T16:39:44.187Z,5.30
2022-12-14T16:42:22.033Z,5.30
2022-12-14T16:44:49.155Z,5.20
2022-12-14T16:47:25.891Z,5.20
2022-12-14T16:50:00.333Z,5.20
2022-12-14T16:52:35.588Z,5.20
2022-12-14T16:55:14.916Z,5.20
2022-12-14T16:57:48.020Z,5.20
2022-12-14T17:00:23.728Z,5.20
2022-12-14T17:02:59.403Z,5.10
2022-12-14T17:05:31.949Z,5.10
2022-12-14T17:07:58.643Z,5.10
2022-12-14T17:10:27.055Z,5.10
2022-12-14T17:13:01.443Z,5.10
2022-12-14T17:15:31.151Z,5.10
2022-12-14T17:18:01.380Z,5.10
2022-12-14T17:20:36.785Z,5.10
2022-12-14T17:23:06.179Z,5.10
2022-12-14T17:25:32.823Z,5.10
2022-12-14T17:28:00.674Z,5.00
2022-12-14T17:30:28.294Z,4.90
2022-12-14T17:32:55.916Z,4.90
2022-12-14T17:35:26.566Z,4.90
2022-12-14T17:37:53.406Z,4.90
2022-12-14T17:40:20.276Z,4.90
2022-12-14T17:42:53.359Z,4.90
2022-12-14T17:45:28.607Z,4.90
2022-12-14T17:47:55.755Z,4.80
2022-12-14T17:50:22.927Z,4.80
2022-12-14T17:52:50.329Z,4.80
2022-12-14T17:55:26.656Z,4.80
2022-12-14T17:57:54.230Z,4.80
2022-12-14T18:00:50.255Z,4.80
2022-12-14T18:03:18.415Z,4.90
2022-12-14T18:05:49.218Z,4.90
2022-12-14T18:08:20.923Z,4.90
2022-12-14T18:10:59.678Z,4.90
2022-12-14T18:13:27.613Z,4.90
2022-12-14T18:15:54.608Z,4.80
2022-12-14T18:18:23.778Z,4.80
2022-12-14T18:20:54.048Z,4.80
2022-12-14T18:23:21.755Z,4.70
2022-12-14T18:25:53.414Z,4.70
2022-12-14T18:28:20.847Z,4.70
2022-12-14T18:30:51.995Z,4.70
2022-12-14T18:33:21.814Z,4.60
2022-12-14T18:35:49.480Z,4.60
2022-12-14T18:38:16.528Z,4.60
2022-12-14T18:40:49.441Z,4.60
2022-12-14T18:43:19.844Z,4.70
2022-12-14T18:45:46.707Z,4.70
2022-12-14T18:48:13.395Z,4.70
2022-12-14T18:50:43.083Z,4.70
2022-12-14T18:53:18.216Z,4.60
2022-12-14T18:55:44.954Z,4.60
2022-12-14T18:58:26.237Z,4.60
2022-12-14T19:00:58.802Z,4.60
2022-12-14T19:03:29.208Z,4.60
2022-12-14T19:06:43.162Z,4.50
2022-12-14T19:08:58.036Z,4.50
2022-12-14T19:11:33.247Z,4.50
2022-12-14T19:14:01.017Z,4.50
2022-12-14T19:16:28.393Z,4.50
2022-12-14T19:18:55.076Z,4.50
2022-12-14T19:21:21.740Z,4.50
2022-12-14T19:23:48.442Z,4.50
2022-12-14T19:26:15.036Z,4.50
2022-12-14T19:28:41.968Z,4.50
2022-12-14T19:31:12.864Z,4.40
2022-12-14T19:33:39.577Z,4.40
2022-12-14T19:36:07.450Z,4.40
2022-12-14T19:38:37.512Z,4.40
2022-12-14T19:41:10.978Z,4.30
2022-12-14T19:43:38.170Z,4.40
2022-12-14T19:46:09.740Z,4.30
2022-12-14T19:48:42.790Z,4.30
2022-12-14T19:51:12.904Z,4.30
2022-12-14T19:53:42.487Z,4.40
2022-12-14T19:56:10.851Z,4.40
2022-12-14T19:58:37.448Z,4.40
2022-12-14T20:01:12.422Z,4.30
2022-12-14T20:03:39.514Z,4.30
2022-12-14T20:06:07.557Z,4.30
2022-12-14T20:08:35.315Z,4.30
2022-12-14T20:11:06.678Z,4.40
2022-12-14T20:13:36.768Z,4.40
2022-12-14T20:16:03.600Z,4.40
2022-12-14T20:18:31.105Z,4.40
2022-12-14T20:21:05.963Z,4.30
2022-12-14T20:23:35.131Z,4.20
2022-12-14T20:26:03.398Z,4.10
2022-12-14T20:28:30.085Z,4.10
2022-12-14T20:30:57.035Z,4.10
2022-12-14T20:33:29.481Z,4.10
2022-12-14T20:35:56.537Z,4.10
2022-12-14T20:38:23.179Z,4.20
2022-12-14T20:40:49.889Z,4.20
2022-12-14T20:43:16.562Z,4.10
2022-12-14T20:45:46.659Z,4.10
2022-12-14T20:48:13.476Z,4.10
2022-12-14T20:50:42.615Z,4.10
2022-12-14T20:53:09.279Z,4.10
2022-12-14T20:55:36.170Z,4.00
2022-12-14T20:58:02.970Z,4.00
2022-12-14T21:00:29.667Z,3.90
2022-12-14T21:02:56.595Z,4.00
2022-12-14T21:05:23.445Z,4.00
2022-12-14T21:07:50.167Z,4.00
2022-12-14T21:10:16.817Z,4.10
2022-12-14T21:12:43.515Z,4.10
2022-12-14T21:15:10.182Z,4.00
2022-12-14T21:17:36.988Z,3.90
2022-12-14T21:20:05.030Z,3.90
2022-12-14T21:22:31.860Z,3.90
2022-12-14T21:25:06.920Z,4.00
2022-12-14T21:27:38.609Z,4.10
2022-12-14T21:30:10.981Z,4.10
2022-12-14T21:32:38.848Z,4.10
2022-12-14T21:35:06.190Z,4.00
2022-12-14T21:37:32.925Z,4.00
2022-12-14T21:40:03.213Z,4.00
2022-12-14T21:42:29.904Z,4.00
2022-12-14T21:44:57.682Z,4.00
2022-12-14T21:47:29.322Z,4.00
2022-12-14T21:49:56.535Z,3.90
2022-12-14T21:52:25.818Z,3.90
2022-12-14T21:54:52.410Z,3.90
2022-12-14T21:57:40.691Z,3.80
2022-12-14T22:00:08.854Z,3.70
2022-12-14T22:02:41.845Z,3.60
2022-12-14T22:05:09.424Z,3.60
2022-12-14T22:07:36.027Z,3.60
2022-12-14T22:10:02.883Z,3.70
2022-12-14T22:12:29.563Z,3.70
2022-12-14T22:14:56.218Z,3.70
2022-12-14T22:17:22.929Z,3.60
2022-12-14T22:19:50.754Z,3.60
2022-12-14T22:22:17.838Z,3.60
2022-12-14T22:24:47.506Z,3.60
2022-12-14T22:27:17.467Z,3.60
2022-12-14T22:29:44.122Z,3.60
2022-12-14T22:32:14.772Z,3.60
2022-12-14T22:34:41.568Z,3.60
2022-12-14T22:37:08.389Z,3.50
2022-12-14T22:39:34.991Z,3.50
2022-12-14T22:42:01.727Z,3.60
2022-12-14T22:44:28.530Z,3.60
2022-12-14T22:46:55.131Z,3.60
2022-12-14T22:49:24.981Z,3.60
2022-12-14T22:51:54.524Z,3.50
2022-12-14T22:54:23.540Z,3.50
2022-12-14T22:57:02.298Z,3.50
2022-12-14T22:59:40.218Z,3.60
2022-12-14T23:02:07.228Z,3.60
2022-12-14T23:04:35.756Z,3.60
2022-12-14T23:07:02.473Z,3.50
2022-12-14T23:09:47.621Z,3.50
2022-12-14T23:12:33.090Z,3.50
2022-12-14T23:15:18.175Z,3.50
2022-12-14T23:18:03.338Z,3.50
2022-12-14T23:20:49.060Z,3.50
2022-12-14T23:23:34.846Z,3.50
2022-12-14T23:26:21.254Z,3.50
2022-12-14T23:29:06.390Z,3.50
2022-12-14T23:31:51.999Z,3.50
2022-12-14T23:34:39.243Z,3.50
2022-12-14T23:37:24.603Z,3.50
2022-12-14T23:40:10.059Z,3.60
2022-12-14T23:42:58.543Z,3.50
2022-12-14T23:45:43.681Z,3.50
2022-12-14T23:48:28.912Z,3.60
2022-12-14T23:51:14.400Z,3.50
2022-12-14T23:53:59.931Z,3.40
2022-12-14T23:56:45.333Z,3.30
2022-12-14T23:59:32.677Z,3.30
